Latest Coastal Weather Observations for St Helens

IDT60701

Issued at 10:22 am EST Wednesday 31 August 2016 (issued every 10 minutes, with the page automatically refreshed every 10 minutes)

About coastal observations | Map of coastal stations | Coastal observations for TAS | Marine services | Other Formats
Station Details ID: 092120 Name: ST HELENS AERODROME Lat: -41.34 Lon: 148.28 Height: 48.0 m
Data from the previous 72 hours. | See also: Recent months at St Helens
Date/Time
EST
Temp
°C
Wind Pressure Rain since
9am
mm
Weather Cloud Vis
km
Sea
Height
m
Swell
Dir  Spd
kts
Gust
kts
hPa Trend Height
m
Period
s
Dir
31/10:00am 14.4 NW 7 11 1010.3 - 0.0 - Partly cloudy 10 - - - -
31/09:30am 12.9 WNW 5 8 1010.4 - 0.0 - Cloudy 10 - - - -
31/09:00am 12.1 W 3 7 1010.6 - 1.4 Fine Mostly cloudy 25 - - - -
31/08:30am 11.9 NNW 5 8 1010.8 - 1.4 - Partly cloudy 10 - - - -
31/08:00am 11.2 WNW 3 5 1010.7 - 1.4 - Partly cloudy 10 - - - -
31/07:51am 11.1 NW 2 4 1010.8 - 1.4 - Partly cloudy 10 - - - -
31/07:30am 11.1 N 5 8 1011.1 - 1.4 - Partly cloudy 10 - - - -
31/07:00am 11.0 N 6 8 1010.8 - 1.4 - Cloudy 10 - - - -
31/06:30am 11.0 NNW 6 9 1011.2 - 1.4 - Cloudy 10 - - - -
31/06:00am 11.0 NW 5 8 1011.3 - 1.4 - Cloudy 10 - - - -
31/05:30am 10.9 NW 5 9 1011.1 - 1.4 - Cloudy 10 - - - -
31/05:00am 11.0 NW 4 6 1011.5 - 1.4 - Cloudy 10 - - - -
31/04:41am 11.0 NW 4 7 1011.6 - 1.4 - Partly cloudy 10 - - - -
31/04:30am 11.0 NW 5 7 1011.8 - 1.4 - Partly cloudy 10 - - - -
31/04:00am 11.1 NW 6 9 1012.0 - 1.4 - Partly cloudy 10 - - - -
31/03:58am 11.1 NW 6 9 1012.1 - 1.4 - Partly cloudy 10 - - - -
31/03:31am 10.8 W 2 5 1012.4 - 1.4 - Partly cloudy 10 - - - -
31/03:30am 10.8 W 3 5 1012.4 - 1.4 - Partly cloudy 10 - - - -
31/03:00am 10.7 WNW 3 7 1012.7 - 1.4 - Cloudy 10 - - - -
31/02:30am 11.0 WNW 6 8 1013.2 - 1.4 - Partly cloudy 10 - - - -
31/02:00am 10.9 WNW 5 9 1013.5 - 1.2 - Partly cloudy 10 - - - -
31/01:30am 10.8 WNW 6 9 1014.0 - 0.6 - Partly cloudy 10 - - - -
31/01:00am 10.9 NW 7 9 1014.3 - 0.4 - Partly cloudy 10 - - - -
31/12:30am 11.0 W 3 7 1014.5 - 0.4 - Cloudy 10 - - - -
31/12:00am 10.8 WNW 2 5 1014.9 - 0.4 - Cloudy 10 - - - -
 
Date/Time
EST
Temp
°C
Wind Pressure Rain since
9am
mm
Weather Cloud Vis
km
Sea
Height
m
Swell
Dir  Spd
kts
Gust
kts
hPa Trend Height
m
Period
s
Dir
30/11:30pm 11.1 N 3 5 1015.0 - 0.4 - Cloudy 10 - - - -
30/11:00pm 11.3 N 4 8 1015.3 - 0.4 - Partly cloudy 10 - - - -
30/10:30pm 11.0 NE 3 6 1015.3 - 0.4 - Partly cloudy 10 - - - -
30/10:24pm 10.8 NE 2 6 1015.4 - 0.4 - Partly cloudy 10 - - - -
30/10:00pm 10.7 WNW 2 5 1015.5 - 0.4 - Partly cloudy 3 - - - -
30/09:49pm 10.7 NNW 5 7 1015.7 - 0.4 - Partly cloudy 3 - - - -
30/09:41pm 11.2 NNW 4 6 1015.7 - 0.4 - Partly cloudy 7 - - - -
30/09:39pm 11.2 NW 4 6 1015.7 - 0.4 - Partly cloudy 7 - - - -
30/09:33pm 11.2 WNW 4 6 1015.8 - 0.4 - Partly cloudy 10 - - - -
30/09:30pm 11.2 W 4 6 1015.8 - 0.4 - Partly cloudy 5 - - - -
30/09:00pm 11.2 NNW 2 3 1016.1 - 0.4 - Cloudy 0.4 - - - -
30/08:31pm 11.1 N 2 5 1016.6 - 0.4 - Partly cloudy 0.7 - - - -
30/08:30pm 11.1 N 2 5 1016.7 - 0.4 - Partly cloudy 1 - - - -
30/08:29pm 11.2 N 3 5 1016.7 - 0.4 - Partly cloudy 2 - - - -
30/08:26pm 11.3 N 4 6 1016.8 - 0.4 - Partly cloudy 4 - - - -
30/08:24pm 11.4 N 4 6 1016.8 - 0.4 - Partly cloudy 5 - - - -
30/08:08pm 11.5 N 2 5 1017.0 - 0.4 - Partly cloudy 5 - - - -
30/08:00pm 11.6 NNW 1 3 1017.1 - 0.4 - Partly cloudy 9 - - - -
30/07:44pm 11.9 NNE 4 5 1017.1 - 0.4 - Partly cloudy 10 - - - -
30/07:30pm 11.1 E 3 6 1017.2 - 0.4 - Partly cloudy 4 - - - -
30/07:28pm 11.1 S 2 6 1017.2 - 0.4 - Partly cloudy 5 - - - -
30/07:07pm 12.0 CALM 0 0 1017.4 - 0.4 - Partly cloudy 10 - - - -
30/07:00pm 11.9 W 1 3 1017.5 - 0.4 - Partly cloudy 10 - - - -
30/06:30pm 12.0 CALM 0 0 1017.9 - 0.4 - Partly cloudy 10 - - - -
30/06:00pm 12.4 CALM 0 0 1017.8 - 0.4 - Cloudy 10 - - - -
30/05:30pm 12.4 CALM 0 0 1018.3 - 0.4 - Partly cloudy 10 - - - -
30/05:23pm 12.4 CALM 0 0 1018.3 - 0.4 - Partly cloudy 10 - - - -
30/05:06pm 12.5 SSE 2 4 1018.2 - 0.4 - Partly cloudy 10 - - - -
30/05:00pm 12.6 SE 2 4 1018.3 - 0.4 - Partly cloudy 10 - - - -
30/04:30pm 13.1 SSE 1 4 1019.0 - 0.0 - Partly cloudy 10 - - - -
30/04:00pm 13.2 SE 1 6 1019.4 - 0.0 - Partly cloudy 10 - - - -
30/03:30pm 13.3 CALM 0 0 1019.9 - 0.0 - Cloudy 10 - - - -
30/03:00pm 13.3 E 2 5 1020.2 - 0.0 - Cloudy 10 - - - -
30/02:47pm 13.5 ESE 1 4 1020.1 - 0.0 - Partly cloudy 10 - - - -
30/02:37pm 13.4 E 1 4 1020.3 - 0.0 - Partly cloudy 10 - - - -
30/02:30pm 13.5 ENE 1 4 1020.4 - 0.0 - Partly cloudy 10 - - - -
30/02:00pm 13.2 ESE 1 3 1020.5 - 0.0 - Cloudy 10 - - - -
30/01:30pm 13.4 ENE 4 5 1020.9 - 0.0 - Cloudy 10 - - - -
30/01:00pm 13.4 ENE 5 7 1021.4 - 0.0 - Partly cloudy 10 - - - -
30/12:30pm 13.2 NE 5 7 1022.1 - 0.0 - Cloudy 10 - - - -
30/12:00pm 13.4 NNE 5 7 1022.6 - 0.0 - Cloudy 10 - - - -
30/11:30am 13.1 CALM 0 3 1023.1 - 0.0 - Cloudy 10 - - - -
30/11:00am 12.3 NW 2 4 1023.6 - 0.0 - Cloudy 10 - - - -
30/10:30am 11.8 CALM 0 0 1023.7 - 0.0 - Partly cloudy 10 - - - -
30/10:00am 10.7 CALM 0 0 1024.1 - 0.0 - Cloudy 10 - - - -
30/09:30am 8.4 NW 4 5 1024.5 - 0.0 - Cloudy 10 - - - -
30/09:00am 7.2 NNW 6 7 1025.0 - 0.2 Fine Mostly cloudy 25 - - - -
30/08:30am 6.5 NNW 7 8 1024.8 - 0.2 - Cloudy 10 - - - -
30/08:00am 5.8 NNW 4 6 1025.0 - 0.2 - Partly cloudy 10 - - - -
30/07:55am 5.8 N 5 8 1025.0 - 0.2 - Cloudy 10 - - - -
30/07:30am 5.7 N 2 4 1024.9 - 0.2 - Cloudy 10 - - - -
30/07:08am 4.8 WNW 1 4 1024.9 - 0.2 - Partly cloudy 10 - - - -
30/07:00am 4.6 NW 4 7 1024.9 - 0.2 - Cloudy 10 - - - -
30/06:30am 4.2 ENE 3 5 1024.6 - 0.2 - Partly cloudy 10 - - - -
30/06:27am 4.2 ESE 2 4 1024.6 - 0.2 - Partly cloudy 10 - - - -
30/06:00am 4.2 NNE 3 6 1024.5 - 0.2 - Mostly clear 10 - - - -
30/05:30am 4.0 WNW 6 10 1024.3 - 0.2 - Partly cloudy 10 - - - -
30/05:14am 4.2 W 2 7 1024.3 - 0.2 - Partly cloudy 10 - - - -
30/05:00am 4.4 WNW 3 6 1024.4 - 0.2 - Partly cloudy 10 - - - -
30/04:30am 4.2 NW 5 6 1024.5 - 0.2 - Partly cloudy 10 - - - -
30/04:29am 4.2 NW 5 7 1024.5 - 0.2 - Partly cloudy 10 - - - -
30/04:00am 3.4 NNW 8 9 1024.2 - 0.2 - - 10 - - - -
30/03:30am 3.7 NNW 6 8 1024.2 - 0.2 - - 10 - - - -
30/03:00am 3.5 NW 7 9 1024.4 - 0.2 - - 10 - - - -
30/02:30am 3.6 NW 6 7 1024.2 - 0.2 - - 10 - - - -
30/02:00am 4.1 NNW 7 8 1024.7 - 0.2 - - 10 - - - -
30/01:30am 4.0 NW 7 8 1025.1 - 0.2 - - 10 - - - -
30/01:00am 4.4 NW 7 8 1025.4 - 0.2 - - 10 - - - -
30/12:30am 4.5 NW 7 10 1025.4 - 0.2 - - 10 - - - -
30/12:00am 4.8 NNW 7 9 1025.6 - 0.2 - - 10 - - - -
 
Date/Time
EST
Temp
°C
Wind Pressure Rain since
9am
mm
Weather Cloud Vis
km
Sea
Height
m
Swell
Dir  Spd
kts
Gust
kts
hPa Trend Height
m
Period
s
Dir
29/11:30pm 5.2 NNW 7 8 1025.6 - 0.2 - - 10 - - - -
29/11:00pm 5.1 NW 8 9 1025.5 - 0.2 - - 10 - - - -
29/10:30pm 5.6 NW 6 8 1025.4 - 0.0 - - 10 - - - -
29/10:00pm 5.5 W 4 7 1025.4 - 0.0 - - 10 - - - -
29/09:30pm 5.9 NW 4 6 1025.2 - 0.0 - - 10 - - - -
29/09:00pm 6.6 NW 3 5 1025.1 - 0.0 - - 10 - - - -
29/08:30pm 6.9 NW 5 8 1025.1 - 0.0 - - 10 - - - -
29/08:00pm 8.0 WSW 2 5 1024.8 - 0.0 - - 10 - - - -
29/07:30pm 8.6 WSW 3 5 1024.8 - 0.0 - - 10 - - - -
29/07:00pm 8.9 S 7 10 1024.4 - 0.0 - - 10 - - - -
29/06:30pm 9.0 S 7 9 1024.1 - 0.0 - - 10 - - - -
29/06:00pm 9.3 S 5 7 1023.9 - 0.0 - - 10 - - - -
29/05:30pm 10.8 SE 4 5 1023.7 - 0.0 - - 10 - - - -
29/05:00pm 11.8 ESE 4 5 1023.6 - 0.0 - - 10 - - - -
29/04:30pm 12.6 E 4 6 1023.3 - 0.0 - - 10 - - - -
29/04:00pm 12.7 E 6 8 1023.0 - 0.0 - - 10 - - - -
29/03:30pm 12.7 ENE 8 11 1023.0 - 0.0 - - 10 - - - -
29/03:00pm 12.6 ENE 8 12 1023.1 - 0.0 - - 10 - - - -
29/02:30pm 12.6 NE 8 12 1023.2 - 0.0 - - 10 - - - -
29/02:00pm 12.6 NE 10 12 1023.1 - 0.0 - - 10 - - - -
29/01:30pm 12.5 NE 7 11 1023.2 - 0.0 - - 10 - - - -
29/01:00pm 11.3 ENE 7 9 1023.3 - 0.0 - - 10 - - - -
29/12:30pm 12.0 NE 7 9 1023.6 - 0.0 - - 10 - - - -
29/12:00pm 12.9 N 4 6 1024.1 - 0.0 - - 10 - - - -
29/11:30am 11.6 N 4 6 1024.5 - 0.0 - - 10 - - - -
29/11:00am 10.6 N 3 4 1024.7 - 0.0 - - 10 - - - -
29/10:30am 10.3 N 4 6 1024.9 - 0.0 - - 10 - - - -
29/10:00am 8.6 NW 4 5 1024.8 - 0.0 - - 10 - - - -
29/09:30am 7.6 NW 4 6 1024.8 - 0.0 - - 10 - - - -
29/09:00am 6.0 NW 5 6 1025.1 - 0.0 Fine Mostly clear 25 - - - -
29/08:30am 4.1 NW 5 6 1024.8 - 0.0 - - 10 - - - -
29/08:00am 2.3 NW 7 9 1024.7 - 0.0 - - 10 - - - -
29/07:30am 1.4 NW 6 8 1024.5 - 0.0 - - 10 - - - -
29/07:00am 0.9 NW 6 8 1024.1 - 0.0 - - 10 - - - -
29/06:30am 0.9 NW 7 8 1023.8 - 0.0 - - 10 - - - -
29/06:00am 0.8 NW 8 9 1023.4 - 0.0 - - 10 - - - -
29/05:30am 1.0 NW 8 9 1023.0 - 0.0 - - 10 - - - -
29/05:00am 1.6 NNW 6 7 1022.5 - 0.0 - - 10 - - - -
29/04:30am 1.4 W 4 6 1022.3 - 0.0 - - 10 - - - -
29/04:00am 1.9 NW 8 9 1022.2 - 0.0 - - 10 - - - -
29/03:30am 2.2 NW 7 9 1022.0 - 0.0 - - 10 - - - -
29/03:00am 2.3 NW 6 8 1022.1 - 0.0 - - 10 - - - -
29/02:30am 2.3 NNW 6 8 1021.9 - 0.0 - - 10 - - - -
29/02:00am 2.4 WNW 6 7 1022.0 - 0.0 - - 10 - - - -
29/01:30am 2.9 NNW 7 9 1021.9 - 0.0 - - 10 - - - -
29/01:00am 3.0 NW 8 11 1021.8 - 0.0 - - 10 - - - -
29/12:30am 3.1 NNW 8 10 1021.5 - 0.0 - - 10 - - - -
29/12:00am 3.3 NNW 8 11 1021.5 - 0.0 - - 10 - - - -
 
Date/Time
EST
Temp
°C
Wind Pressure Rain since
9am
mm
Weather Cloud Vis
km
Sea
Height
m
Swell
Dir  Spd
kts
Gust
kts
hPa Trend Height
m
Period
s
Dir
28/11:30pm 3.4 NW 7 9 1021.2 - 0.0 - - 10 - - - -
28/11:00pm 3.7 NNW 6 8 1021.1 - 0.0 - - 10 - - - -
28/10:30pm 4.4 NW 6 8 1021.0 - 0.0 - - 10 - - - -
28/10:00pm 3.7 NW 8 9 1020.7 - 0.0 - - 10 - - - -
28/09:30pm 4.5 NW 6 7 1020.5 - 0.0 - - 10 - - - -
28/09:00pm 4.6 NNW 6 7 1020.4 - 0.0 - - 10 - - - -
28/08:30pm 5.2 NNW 5 6 1020.0 - 0.0 - - 10 - - - -
28/08:00pm 5.3 NW 6 8 1019.8 - 0.0 - - 10 - - - -
28/07:30pm 6.0 WNW 3 5 1019.5 - 0.0 - - 10 - - - -
28/07:00pm 8.0 S 3 4 1019.2 - 0.0 - - 10 - - - -
28/06:30pm 8.3 SE 3 3 1018.9 - 0.0 - Partly cloudy 10 - - - -
28/06:00pm 8.1 CALM 0 0 1018.7 - 0.0 - Partly cloudy 10 - - - -
28/05:30pm 8.5 ENE 3 5 1018.3 - 0.0 - - 10 - - - -
28/05:00pm 10.0 ENE 5 6 1017.6 - 0.0 - - 10 - - - -
28/04:30pm 10.2 NE 7 10 1017.5 - 0.0 - Partly cloudy 10 - - - -
28/04:00pm 11.2 ENE 8 10 1017.4 - 0.0 - Cloudy 10 - - - -
28/03:30pm 10.9 ENE 8 11 1017.3 - 0.0 - Cloudy 10 - - - -
28/03:00pm 11.2 NE 8 10 1017.2 - 0.0 - Cloudy 10 - - - -
28/02:30pm 11.2 ENE 9 13 1016.6 - 0.0 - Cloudy 10 - - - -
28/02:00pm 11.5 E 5 11 1016.6 - 0.0 - Cloudy 10 - - - -
28/01:30pm 12.2 ENE 10 11 1016.6 - 0.0 - Cloudy 10 - - - -
28/01:00pm 11.8 S 6 9 1016.6 - 0.0 - Partly cloudy 10 - - - -
28/12:30pm 12.2 SSW 8 14 1016.8 - 0.0 - Partly cloudy 10 - - - -
28/12:00pm 12.1 S 5 11 1017.0 - 0.0 - Mostly clear 10 - - - -
28/11:30am 11.8 SSW 9 17 1017.1 - 0.0 - - 10 - - - -
28/11:00am 11.5 SW 8 13 1017.1 - 0.0 - - 10 - - - -
28/10:30am 10.7 SSW 8 17 1016.7 - 0.0 - - 10 - - - -

Other Formats:

Comma delimited format used in spreadsheet applications
http://www.bom.gov.au/fwo/IDT60701/IDT60701.95981.axf

JavaScript Object Notation format (JSON) in row-major order
http://www.bom.gov.au/fwo/IDT60701/IDT60701.95981.json